sensor_id;sensor_type;location;lat;lon;timestamp;pressure;altitude;pressure_sealevel;temperature
27715;BMP280;16051;53.024;8.630;2022-11-20T00:01:04;101271.25;;;0.41
27715;BMP280;16051;53.024;8.630;2022-11-20T00:05:08;101260.38;;;0.44
27715;BMP280;16051;53.024;8.630;2022-11-20T00:09:12;101263.09;;;0.48
27715;BMP280;16051;53.024;8.630;2022-11-20T00:13:14;101254.94;;;0.48
27715;BMP280;16051;53.024;8.630;2022-11-20T00:17:16;101259.22;;;0.49
27715;BMP280;16051;53.024;8.630;2022-11-20T00:21:32;101253.41;;;0.54
27715;BMP280;16051;53.024;8.630;2022-11-20T00:25:35;101261.16;;;0.48
27715;BMP280;16051;53.024;8.630;2022-11-20T00:29:37;101264.66;;;0.53
27715;BMP280;16051;53.024;8.630;2022-11-20T00:33:40;101249.91;;;0.54
27715;BMP280;16051;53.024;8.630;2022-11-20T00:37:42;101255.34;;;0.57
27715;BMP280;16051;53.024;8.630;2022-11-20T00:41:55;101254.16;;;0.58
27715;BMP280;16051;53.024;8.630;2022-11-20T00:46:00;101248.34;;;0.60
27715;BMP280;16051;53.024;8.630;2022-11-20T00:50:03;101252.59;;;0.64
27715;BMP280;16051;53.024;8.630;2022-11-20T00:54:05;101245.25;;;0.61
27715;BMP280;16051;53.024;8.630;2022-11-20T00:58:09;101244.44;;;0.64
27715;BMP280;16051;53.024;8.630;2022-11-20T01:02:11;101251.44;;;0.69
27715;BMP280;16051;53.024;8.630;2022-11-20T01:06:15;101253.78;;;0.63
27715;BMP280;16051;53.024;8.630;2022-11-20T01:10:20;101245.22;;;0.68
27715;BMP280;16051;53.024;8.630;2022-11-20T01:14:23;101238.59;;;0.69
27715;BMP280;16051;53.024;8.630;2022-11-20T01:18:25;101240.94;;;0.71
27715;BMP280;16051;53.024;8.630;2022-11-20T01:22:27;101232.41;;;0.76
27715;BMP280;16051;53.024;8.630;2022-11-20T01:26:36;101241.31;;;0.76
27715;BMP280;16051;53.024;8.630;2022-11-20T01:30:40;101224.97;;;0.80
27715;BMP280;16051;53.024;8.630;2022-11-20T01:34:42;101229.66;;;0.79
27715;BMP280;16051;53.024;8.630;2022-11-20T01:38:44;101223.44;;;0.79
27715;BMP280;16051;53.024;8.630;2022-11-20T01:43:00;101230.81;;;0.85
27715;BMP280;16051;53.024;8.630;2022-11-20T01:47:31;101222.25;;;0.83
27715;BMP280;16051;53.024;8.630;2022-11-20T01:51:42;101213.31;;;0.90
27715;BMP280;16051;53.024;8.630;2022-11-20T01:55:49;101215.63;;;0.88
27715;BMP280;16051;53.024;8.630;2022-11-20T02:00:09;101206.72;;;0.84
27715;BMP280;16051;53.024;8.630;2022-11-20T02:04:15;101194.28;;;0.86
27715;BMP280;16051;53.024;8.630;2022-11-20T02:08:19;101197.00;;;0.90
27715;BMP280;16051;53.024;8.630;2022-11-20T02:12:21;101195.44;;;0.85
27715;BMP280;16051;53.024;8.630;2022-11-20T02:16:46;101195.03;;;0.87
27715;BMP280;16051;53.024;8.630;2022-11-20T02:20:57;101191.56;;;0.90
27715;BMP280;16051;53.024;8.630;2022-11-20T02:25:07;101190.78;;;0.93
27715;BMP280;16051;53.024;8.630;2022-11-20T02:29:10;101189.59;;;0.87
27715;BMP280;16051;53.024;8.630;2022-11-20T02:33:12;101182.63;;;0.89
27715;BMP280;16051;53.024;8.630;2022-11-20T02:37:15;101179.94;;;0.79
27715;BMP280;16051;53.024;8.630;2022-11-20T02:41:33;101182.59;;;0.93
27715;BMP280;16051;53.024;8.630;2022-11-20T02:45:37;101174.03;;;0.91
27715;BMP280;16051;53.024;8.630;2022-11-20T02:54:55;101160.88;;;0.82
27715;BMP280;16051;53.024;8.630;2022-11-20T02:59:03;101159.69;;;0.87
27715;BMP280;16051;53.024;8.630;2022-11-20T03:03:06;101167.47;;;0.85
27715;BMP280;16051;53.024;8.630;2022-11-20T03:07:08;101154.25;;;0.87
27715;BMP280;16051;53.024;8.630;2022-11-20T03:11:11;101142.56;;;0.97
27715;BMP280;16051;53.024;8.630;2022-11-20T03:15:14;101147.63;;;0.91
27715;BMP280;16051;53.024;8.630;2022-11-20T03:19:30;101142.56;;;0.97
27715;BMP280;16051;53.024;8.630;2022-11-20T03:23:33;101139.09;;;0.93
27715;BMP280;16051;53.024;8.630;2022-11-20T03:27:35;101139.47;;;0.91
27715;BMP280;16051;53.024;8.630;2022-11-20T03:31:40;101140.22;;;0.99
27715;BMP280;16051;53.024;8.630;2022-11-20T03:35:42;101130.50;;;0.98
27715;BMP280;16051;53.024;8.630;2022-11-20T03:39:44;101131.69;;;0.93
27715;BMP280;16051;53.024;8.630;2022-11-20T03:43:58;101132.47;;;0.94
27715;BMP280;16051;53.024;8.630;2022-11-20T03:48:03;101124.66;;;0.99
27715;BMP280;16051;53.024;8.630;2022-11-20T03:52:05;101120.34;;;1.06
27715;BMP280;16051;53.024;8.630;2022-11-20T03:56:08;101113.44;;;0.97
27715;BMP280;16051;53.024;8.630;2022-11-20T04:00:12;101113.78;;;1.03
27715;BMP280;16051;53.024;8.630;2022-11-20T04:04:16;101111.06;;;1.03
27715;BMP280;16051;53.024;8.630;2022-11-20T04:08:28;101102.53;;;0.97
27715;BMP280;16051;53.024;8.630;2022-11-20T04:12:32;101120.38;;;0.98
27715;BMP280;16051;53.024;8.630;2022-11-20T04:16:36;101114.59;;;0.93
27715;BMP280;16051;53.024;8.630;2022-11-20T04:20:39;101113.81;;;0.96
27715;BMP280;16051;53.024;8.630;2022-11-20T04:24:42;101105.28;;;0.94
27715;BMP280;16051;53.024;8.630;2022-11-20T04:28:44;101100.59;;;0.94
27715;BMP280;16051;53.024;8.630;2022-11-20T04:32:46;101088.16;;;1.01
27715;BMP280;16051;53.024;8.630;2022-11-20T04:36:49;101090.84;;;1.01
27715;BMP280;16051;53.024;8.630;2022-11-20T04:40:57;101097.13;;;0.94
27715;BMP280;16051;53.024;8.630;2022-11-20T04:45:00;101121.84;;;1.21
27715;BMP280;16051;53.024;8.630;2022-11-20T04:49:02;101109.94;;;0.97
27715;BMP280;16051;53.024;8.630;2022-11-20T04:53:06;101101.75;;;0.97
27715;BMP280;16051;53.024;8.630;2022-11-20T04:57:08;101108.38;;;0.92
27715;BMP280;16051;53.024;8.630;2022-11-20T05:01:12;101104.50;;;0.93
27715;BMP280;16051;53.024;8.630;2022-11-20T05:05:15;101097.09;;;0.97
27715;BMP280;16051;53.024;8.630;2022-11-20T05:09:18;101107.19;;;1.01
27715;BMP280;16051;53.024;8.630;2022-11-20T05:13:20;101091.66;;;1.01
27715;BMP280;16051;53.024;8.630;2022-11-20T05:17:22;101087.75;;;0.98
27715;BMP280;16051;53.024;8.630;2022-11-20T05:21:24;101082.25;;;1.06
27715;BMP280;16051;53.024;8.630;2022-11-20T05:25:28;101088.47;;;1.10
27715;BMP280;16051;53.024;8.630;2022-11-20T05:29:30;101083.03;;;1.06
27715;BMP280;16051;53.024;8.630;2022-11-20T05:33:33;101074.94;;;0.95
27715;BMP280;16051;53.024;8.630;2022-11-20T05:37:36;101085.44;;;0.97
27715;BMP280;16051;53.024;8.630;2022-11-20T05:41:39;101075.69;;;0.99
27715;BMP280;16051;53.024;8.630;2022-11-20T05:45:53;101076.09;;;0.98
27715;BMP280;16051;53.024;8.630;2022-11-20T05:49:56;101076.09;;;0.98
27715;BMP280;16051;53.024;8.630;2022-11-20T05:53:58;101076.84;;;1.02
27715;BMP280;16051;53.024;8.630;2022-11-20T05:58:01;101073.34;;;1.02
27715;BMP280;16051;53.024;8.630;2022-11-20T06:02:03;101061.72;;;1.01
27715;BMP280;16051;53.024;8.630;2022-11-20T06:06:06;101069.47;;;1.03
27715;BMP280;16051;53.024;8.630;2022-11-20T06:10:11;101063.97;;;1.13
27715;BMP280;16051;53.024;8.630;2022-11-20T06:14:15;101061.28;;;1.06
27715;BMP280;16051;53.024;8.630;2022-11-20T06:18:18;101055.09;;;1.02
27715;BMP280;16051;53.024;8.630;2022-11-20T06:22:21;101051.56;;;1.05
27715;BMP280;16051;53.024;8.630;2022-11-20T06:26:25;101053.56;;;1.01
27715;BMP280;16051;53.024;8.630;2022-11-20T06:30:29;101046.94;;;0.98
27715;BMP280;16051;53.024;8.630;2022-11-20T06:34:31;101029.84;;;0.98
27715;BMP280;16051;53.024;8.630;2022-11-20T06:38:33;101036.09;;;0.95
27715;BMP280;16051;53.024;8.630;2022-11-20T06:42:41;101056.69;;;0.96
27715;BMP280;16051;53.024;8.630;2022-11-20T06:46:45;101059.03;;;0.94
27715;BMP280;16051;53.024;8.630;2022-11-20T06:50:57;101060.19;;;0.93
27715;BMP280;16051;53.024;8.630;2022-11-20T06:54:59;101053.59;;;0.94
27715;BMP280;16051;53.024;8.630;2022-11-20T06:59:04;101053.91;;;1.03
27715;BMP280;16051;53.024;8.630;2022-11-20T07:03:10;101047.28;;;1.08
27715;BMP280;16051;53.024;8.630;2022-11-20T07:07:13;101042.22;;;1.10
27715;BMP280;16051;53.024;8.630;2022-11-20T07:11:15;101033.31;;;1.02
27715;BMP280;16051;53.024;8.630;2022-11-20T07:15:17;101024.44;;;0.94
27715;BMP280;16051;53.024;8.630;2022-11-20T07:19:20;101015.91;;;0.92
27715;BMP280;16051;53.024;8.630;2022-11-20T07:23:22;101030.69;;;0.88
27715;BMP280;16051;53.024;8.630;2022-11-20T07:27:25;101046.22;;;0.91
27715;BMP280;16051;53.024;8.630;2022-11-20T07:31:27;101050.47;;;0.95
27715;BMP280;16051;53.024;8.630;2022-11-20T07:35:36;101053.94;;;0.99
27715;BMP280;16051;53.024;8.630;2022-11-20T07:39:39;101037.97;;;1.05
27715;BMP280;16051;53.024;8.630;2022-11-20T07:43:41;101049.69;;;0.95
27715;BMP280;16051;53.024;8.630;2022-11-20T07:47:43;101034.53;;;0.97
27715;BMP280;16051;53.024;8.630;2022-11-20T07:51:49;101039.19;;;1.01
27715;BMP280;16051;53.024;8.630;2022-11-20T07:55:52;101049.59;;;1.09
27715;BMP280;16051;53.024;8.630;2022-11-20T07:59:54;101051.53;;;1.16
27715;BMP280;16051;53.024;8.630;2022-11-20T08:03:57;101051.94;;;1.11
27715;BMP280;16051;53.024;8.630;2022-11-20T08:08:00;101045.28;;;1.19
27715;BMP280;16051;53.024;8.630;2022-11-20T08:12:02;101048.75;;;1.23
27715;BMP280;16051;53.024;8.630;2022-11-20T08:16:22;101048.25;;;1.35
27715;BMP280;16051;53.024;8.630;2022-11-20T08:20:24;101055.63;;;1.38
27715;BMP280;16051;53.024;8.630;2022-11-20T08:24:28;101061.84;;;1.38
27715;BMP280;16051;53.024;8.630;2022-11-20T08:28:30;101061.50;;;1.33
27715;BMP280;16051;53.024;8.630;2022-11-20T08:32:43;101056.84;;;1.33
27715;BMP280;16051;53.024;8.630;2022-11-20T08:36:46;101061.44;;;1.40
27715;BMP280;16051;53.024;8.630;2022-11-20T08:40:49;101056.34;;;1.45
27715;BMP280;16051;53.024;8.630;2022-11-20T08:45:08;101059.38;;;1.58
27715;BMP280;16051;53.024;8.630;2022-11-20T08:49:13;101058.22;;;1.52
27715;BMP280;16051;53.024;8.630;2022-11-20T08:53:32;101064.81;;;1.58
27715;BMP280;16051;53.024;8.630;2022-11-20T08:57:37;101043.41;;;1.57
27715;BMP280;16051;53.024;8.630;2022-11-20T09:01:39;101052.41;;;1.54
27715;BMP280;16051;53.024;8.630;2022-11-20T09:05:41;101046.13;;;1.60
27715;BMP280;16051;53.024;8.630;2022-11-20T09:09:59;101063.16;;;1.68
27715;BMP280;16051;53.024;8.630;2022-11-20T09:14:02;101044.06;;;1.71
27715;BMP280;16051;53.024;8.630;2022-11-20T09:18:05;101067.81;;;1.71
27715;BMP280;16051;53.024;8.630;2022-11-20T09:22:07;101056.91;;;1.71
27715;BMP280;16051;53.024;8.630;2022-11-20T09:26:12;101068.63;;;1.68
27715;BMP280;16051;53.024;8.630;2022-11-20T09:30:24;101068.22;;;1.69
27715;BMP280;16051;53.024;8.630;2022-11-20T09:34:27;101057.72;;;1.68
27715;BMP280;16051;53.024;8.630;2022-11-20T09:38:29;101062.34;;;1.71
27715;BMP280;16051;53.024;8.630;2022-11-20T09:42:40;101070.47;;;1.78
27715;BMP280;16051;53.024;8.630;2022-11-20T09:46:53;101062.31;;;1.78
27715;BMP280;16051;53.024;8.630;2022-11-20T09:51:04;101047.53;;;1.75
27715;BMP280;16051;53.024;8.630;2022-11-20T09:55:12;101057.97;;;1.84
27715;BMP280;16051;53.024;8.630;2022-11-20T09:59:36;101039.72;;;1.81
27715;BMP280;16051;53.024;8.630;2022-11-20T10:03:53;101047.09;;;1.84
27715;BMP280;16051;53.024;8.630;2022-11-20T10:08:16;101043.97;;;1.82
27715;BMP280;16051;53.024;8.630;2022-11-20T10:12:33;101049.78;;;1.87
27715;BMP280;16051;53.024;8.630;2022-11-20T10:16:48;101050.50;;;1.95
27715;BMP280;16051;53.024;8.630;2022-11-20T10:21:04;101041.94;;;1.93
27715;BMP280;16051;53.024;8.630;2022-11-20T10:25:15;101038.69;;;2.05
27715;BMP280;16051;53.024;8.630;2022-11-20T10:29:22;101038.31;;;2.03
27715;BMP280;16051;53.024;8.630;2022-11-20T10:33:48;101034.53;;;1.93
27715;BMP280;16051;53.024;8.630;2022-11-20T10:38:00;101026.69;;;1.99
27715;BMP280;16051;53.024;8.630;2022-11-20T10:42:11;101026.78;;;1.88
27715;BMP280;16051;53.024;8.630;2022-11-20T10:46:17;101023.63;;;1.93
27715;BMP280;16051;53.024;8.630;2022-11-20T10:50:59;101020.78;;;2.04
27715;BMP280;16051;53.024;8.630;2022-11-20T10:55:25;101026.13;;;2.15
27715;BMP280;16051;53.024;8.630;2022-11-20T10:59:47;101024.09;;;2.22
27715;BMP280;16051;53.024;8.630;2022-11-20T11:03:54;101024.09;;;2.22
27715;BMP280;16051;53.024;8.630;2022-11-20T11:07:59;101009.31;;;2.23
27715;BMP280;16051;53.024;8.630;2022-11-20T11:12:07;101004.75;;;2.13
27715;BMP280;16051;53.024;8.630;2022-11-20T11:16:22;101006.22;;;2.18
27715;BMP280;16051;53.024;8.630;2022-11-20T11:20:26;100991.78;;;2.21
27715;BMP280;16051;53.024;8.630;2022-11-20T11:24:30;100990.09;;;2.34
27715;BMP280;16051;53.024;8.630;2022-11-20T11:28:34;100982.75;;;2.31
27715;BMP280;16051;53.024;8.630;2022-11-20T11:32:36;100990.13;;;2.30
27715;BMP280;16051;53.024;8.630;2022-11-20T11:36:57;100984.72;;;2.27
27715;BMP280;16051;53.024;8.630;2022-11-20T11:41:01;100983.19;;;2.26
27715;BMP280;16051;53.024;8.630;2022-11-20T11:45:14;100985.13;;;2.25
27715;BMP280;16051;53.024;8.630;2022-11-20T11:49:19;100988.97;;;2.31
27715;BMP280;16051;53.024;8.630;2022-11-20T11:53:26;100984.00;;;2.23
27715;BMP280;16051;53.024;8.630;2022-11-20T11:57:44;100981.66;;;2.21
27715;BMP280;16051;53.024;8.630;2022-11-20T12:01:56;100973.91;;;2.20
27715;BMP280;16051;53.024;8.630;2022-11-20T12:06:14;100970.41;;;2.19
27715;BMP280;16051;53.024;8.630;2022-11-20T12:10:33;100962.84;;;2.34
27715;BMP280;16051;53.024;8.630;2022-11-20T12:14:53;100961.38;;;2.26
27715;BMP280;16051;53.024;8.630;2022-11-20T12:18:58;100959.13;;;2.17
27715;BMP280;16051;53.024;8.630;2022-11-20T12:23:10;100957.81;;;2.29
27715;BMP280;16051;53.024;8.630;2022-11-20T12:28:08;100953.97;;;2.26
27715;BMP280;16051;53.024;8.630;2022-11-20T12:32:48;100955.81;;;2.33
27715;BMP280;16051;53.024;8.630;2022-11-20T12:37:05;100950.75;;;2.35
27715;BMP280;16051;53.024;8.630;2022-11-20T12:41:31;100949.88;;;2.41
27715;BMP280;16051;53.024;8.630;2022-11-20T12:46:25;100943.41;;;2.59
27715;BMP280;16051;53.024;8.630;2022-11-20T12:50:48;100937.56;;;2.60
27715;BMP280;16051;53.024;8.630;2022-11-20T12:55:21;100942.03;;;2.74
27715;BMP280;16051;53.024;8.630;2022-11-20T12:59:54;100943.31;;;2.66
27715;BMP280;16051;53.024;8.630;2022-11-20T13:04:28;100937.06;;;2.65
27715;BMP280;16051;53.024;8.630;2022-11-20T13:08:37;100934.06;;;2.60
27715;BMP280;16051;53.024;8.630;2022-11-20T13:12:47;100944.91;;;2.63
27715;BMP280;16051;53.024;8.630;2022-11-20T13:16:58;100930.59;;;2.56
27715;BMP280;16051;53.024;8.630;2022-11-20T13:21:01;100929.72;;;2.62
27715;BMP280;16051;53.024;8.630;2022-11-20T13:25:04;100926.53;;;2.40
27715;BMP280;16051;53.024;8.630;2022-11-20T13:29:16;100924.16;;;2.42
27715;BMP280;16051;53.024;8.630;2022-11-20T13:33:28;100923.06;;;2.36
27715;BMP280;16051;53.024;8.630;2022-11-20T13:37:33;100909.13;;;2.31
27715;BMP280;16051;53.024;8.630;2022-11-20T13:41:37;100904.91;;;2.26
27715;BMP280;16051;53.024;8.630;2022-11-20T13:45:54;100910.81;;;2.21
27715;BMP280;16051;53.024;8.630;2022-11-20T13:49:58;100908.56;;;2.16
27715;BMP280;16051;53.024;8.630;2022-11-20T13:54:41;100909.19;;;2.27
27715;BMP280;16051;53.024;8.630;2022-11-20T13:59:02;100895.84;;;2.06
27715;BMP280;16051;53.024;8.630;2022-11-20T14:03:22;100890.16;;;1.93
27715;BMP280;16051;53.024;8.630;2022-11-20T14:07:35;100884.09;;;1.79
27715;BMP280;16051;53.024;8.630;2022-11-20T14:11:46;100878.63;;;1.79
27715;BMP280;16051;53.024;8.630;2022-11-20T14:15:57;100877.13;;;1.74
27715;BMP280;16051;53.024;8.630;2022-11-20T14:20:05;100866.88;;;1.85
27715;BMP280;16051;53.024;8.630;2022-11-20T14:24:12;100869.69;;;1.78
27715;BMP280;16051;53.024;8.630;2022-11-20T14:28:25;100872.50;;;1.71
27715;BMP280;16051;53.024;8.630;2022-11-20T14:32:32;100863.25;;;1.65
27715;BMP280;16051;53.024;8.630;2022-11-20T14:36:45;100846.91;;;1.65
27715;BMP280;16051;53.024;8.630;2022-11-20T14:40:47;100855.25;;;1.51
27715;BMP280;16051;53.024;8.630;2022-11-20T14:44:52;100849.88;;;1.44
27715;BMP280;16051;53.024;8.630;2022-11-20T14:48:57;100839.03;;;1.40
27715;BMP280;16051;53.024;8.630;2022-11-20T14:53:03;100842.19;;;1.35
27715;BMP280;16051;53.024;8.630;2022-11-20T14:57:23;100837.50;;;1.36
27715;BMP280;16051;53.024;8.630;2022-11-20T15:01:28;100834.91;;;1.25
27715;BMP280;16051;53.024;8.630;2022-11-20T15:05:47;100822.53;;;1.17
27715;BMP280;16051;53.024;8.630;2022-11-20T15:10:03;100823.28;;;1.21
27715;BMP280;16051;53.024;8.630;2022-11-20T15:14:08;100826.44;;;1.16
27715;BMP280;16051;53.024;8.630;2022-11-20T15:18:13;100818.31;;;1.13
27715;BMP280;16051;53.024;8.630;2022-11-20T15:22:16;100815.94;;;1.18
27715;BMP280;16051;53.024;8.630;2022-11-20T15:26:24;100805.84;;;1.15
27715;BMP280;16051;53.024;8.630;2022-11-20T15:30:26;100805.91;;;1.12
27715;BMP280;16051;53.024;8.630;2022-11-20T15:34:28;100799.00;;;1.00
27715;BMP280;16051;53.024;8.630;2022-11-20T15:38:30;100785.47;;;0.93
27715;BMP280;16051;53.024;8.630;2022-11-20T15:42:35;100779.69;;;0.87
27715;BMP280;16051;53.024;8.630;2022-11-20T15:46:46;100777.00;;;0.84
27715;BMP280;16051;53.024;8.630;2022-11-20T15:50:54;100766.63;;;0.75
27715;BMP280;16051;53.024;8.630;2022-11-20T15:54:57;100757.72;;;0.71
27715;BMP280;16051;53.024;8.630;2022-11-20T15:59:01;100754.66;;;0.66
27715;BMP280;16051;53.024;8.630;2022-11-20T16:03:03;100747.41;;;0.52
27715;BMP280;16051;53.024;8.630;2022-11-20T16:07:05;100745.78;;;0.58
27715;BMP280;16051;53.024;8.630;2022-11-20T16:11:10;100747.06;;;0.46
27715;BMP280;16051;53.024;8.630;2022-11-20T16:15:15;100752.56;;;0.39
27715;BMP280;16051;53.024;8.630;2022-11-20T16:19:34;100734.34;;;0.33
27715;BMP280;16051;53.024;8.630;2022-11-20T16:23:37;100747.56;;;0.34
27715;BMP280;16051;53.024;8.630;2022-11-20T16:27:39;100740.25;;;0.28
27715;BMP280;16051;53.024;8.630;2022-11-20T16:31:42;100736.41;;;0.18
27715;BMP280;16051;53.024;8.630;2022-11-20T16:35:45;100743.81;;;0.18
27715;BMP280;16051;53.024;8.630;2022-11-20T16:39:47;100732.19;;;0.14
27715;BMP280;16051;53.024;8.630;2022-11-20T16:43:51;100736.47;;;0.11
27715;BMP280;16051;53.024;8.630;2022-11-20T16:47:55;100738.41;;;0.14
27715;BMP280;16051;53.024;8.630;2022-11-20T16:52:04;100742.31;;;0.10
27715;BMP280;16051;53.024;8.630;2022-11-20T16:56:12;100743.13;;;0.07
27715;BMP280;16051;53.024;8.630;2022-11-20T17:00:16;100737.72;;;-0.01
27715;BMP280;16051;53.024;8.630;2022-11-20T17:04:19;100742.41;;;-0.05
27715;BMP280;16051;53.024;8.630;2022-11-20T17:08:21;100730.00;;;-0.06
27715;BMP280;16051;53.024;8.630;2022-11-20T17:12:23;100730.38;;;-0.07
27715;BMP280;16051;53.024;8.630;2022-11-20T17:16:34;100719.16;;;-0.09
27715;BMP280;16051;53.024;8.630;2022-11-20T17:20:38;100718.41;;;-0.13
27715;BMP280;16051;53.024;8.630;2022-11-20T17:24:40;100721.56;;;-0.18
27715;BMP280;16051;53.024;8.630;2022-11-20T17:28:45;100708.00;;;-0.22
27715;BMP280;16051;53.024;8.630;2022-11-20T17:32:47;100709.16;;;-0.23
27715;BMP280;16051;53.024;8.630;2022-11-20T17:36:51;100709.19;;;-0.26
27715;BMP280;16051;53.024;8.630;2022-11-20T17:41:00;100706.09;;;-0.28
27715;BMP280;16051;53.024;8.630;2022-11-20T17:45:15;100697.16;;;-0.25
27715;BMP280;16051;53.024;8.630;2022-11-20T17:49:17;100697.59;;;-0.30
27715;BMP280;16051;53.024;8.630;2022-11-20T17:53:20;100690.19;;;-0.26
27715;BMP280;16051;53.024;8.630;2022-11-20T17:57:31;100692.94;;;-0.30
27715;BMP280;16051;53.024;8.630;2022-11-20T18:01:51;100693.28;;;-0.24
27715;BMP280;16051;53.024;8.630;2022-11-20T18:05:54;100695.22;;;-0.25
27715;BMP280;16051;53.024;8.630;2022-11-20T18:10:04;100695.22;;;-0.28
27715;BMP280;16051;53.024;8.630;2022-11-20T18:14:10;100680.53;;;-0.31
27715;BMP280;16051;53.024;8.630;2022-11-20T18:18:32;100672.44;;;-0.38
27715;BMP280;16051;53.024;8.630;2022-11-20T18:22:36;100663.91;;;-0.36
27715;BMP280;16051;53.024;8.630;2022-11-20T18:26:40;100665.09;;;-0.41
27715;BMP280;16051;53.024;8.630;2022-11-20T18:30:42;100668.19;;;-0.42
27715;BMP280;16051;53.024;8.630;2022-11-20T18:34:44;100672.44;;;-0.41
27715;BMP280;16051;53.024;8.630;2022-11-20T18:38:48;100670.88;;;-0.39
27715;BMP280;16051;53.024;8.630;2022-11-20T18:42:53;100658.94;;;-0.48
27715;BMP280;16051;53.024;8.630;2022-11-20T18:47:22;100646.09;;;-0.41
27715;BMP280;16051;53.024;8.630;2022-11-20T18:51:24;100633.69;;;-0.42
27715;BMP280;16051;53.024;8.630;2022-11-20T18:55:35;100628.22;;;-0.38
27715;BMP280;16051;53.024;8.630;2022-11-20T18:59:38;100623.56;;;-0.38
27715;BMP280;16051;53.024;8.630;2022-11-20T19:03:41;100624.38;;;-0.41
27715;BMP280;16051;53.024;8.630;2022-11-20T19:07:43;100620.84;;;-0.38
27715;BMP280;16051;53.024;8.630;2022-11-20T19:11:45;100615.41;;;-0.34
27715;BMP280;16051;53.024;8.630;2022-11-20T19:15:52;100614.25;;;-0.33
27715;BMP280;16051;53.024;8.630;2022-11-20T19:19:54;100607.25;;;-0.34
27715;BMP280;16051;53.024;8.630;2022-11-20T19:24:04;100597.53;;;-0.32
27715;BMP280;16051;53.024;8.630;2022-11-20T19:28:06;100596.38;;;-0.31
27715;BMP280;16051;53.024;8.630;2022-11-20T19:32:10;100595.59;;;-0.31
27715;BMP280;16051;53.024;8.630;2022-11-20T19:36:16;100600.28;;;-0.35
27715;BMP280;16051;53.024;8.630;2022-11-20T19:40:18;100582.44;;;-0.33
27715;BMP280;16051;53.024;8.630;2022-11-20T19:44:20;100585.84;;;-0.25
27715;BMP280;16051;53.024;8.630;2022-11-20T19:48:33;100585.09;;;-0.26
27715;BMP280;16051;53.024;8.630;2022-11-20T19:52:36;100573.50;;;-0.30
27715;BMP280;16051;53.024;8.630;2022-11-20T19:56:46;100569.59;;;-0.29
27715;BMP280;16051;53.024;8.630;2022-11-20T20:00:49;100567.66;;;-0.28
27715;BMP280;16051;53.024;8.630;2022-11-20T20:04:52;100561.00;;;-0.20
27715;BMP280;16051;53.024;8.630;2022-11-20T20:09:05;100559.88;;;-0.23
27715;BMP280;16051;53.024;8.630;2022-11-20T20:13:08;100567.16;;;-0.16
27715;BMP280;16051;53.024;8.630;2022-11-20T20:17:10;100565.69;;;-0.24
27715;BMP280;16051;53.024;8.630;2022-11-20T20:21:16;100561.44;;;-0.29
27715;BMP280;16051;53.024;8.630;2022-11-20T20:25:18;100563.78;;;-0.27
27715;BMP280;16051;53.024;8.630;2022-11-20T20:29:29;100549.81;;;-0.26
27715;BMP280;16051;53.024;8.630;2022-11-20T20:33:31;100557.59;;;-0.31
27715;BMP280;16051;53.024;8.630;2022-11-20T20:37:36;100547.19;;;-0.36
27715;BMP280;16051;53.024;8.630;2022-11-20T20:41:38;100552.19;;;-0.31
27715;BMP280;16051;53.024;8.630;2022-11-20T20:45:45;100543.25;;;-0.32
27715;BMP280;16051;53.024;8.630;2022-11-20T20:49:51;100552.56;;;-0.29
27715;BMP280;16051;53.024;8.630;2022-11-20T20:53:54;100544.06;;;-0.35
27715;BMP280;16051;53.024;8.630;2022-11-20T20:58:00;100544.03;;;-0.31
27715;BMP280;16051;53.024;8.630;2022-11-20T21:02:02;100540.19;;;-0.34
27715;BMP280;16051;53.024;8.630;2022-11-20T21:06:06;100542.91;;;-0.34
27715;BMP280;16051;53.024;8.630;2022-11-20T21:10:11;100537.03;;;-0.29
27715;BMP280;16051;53.024;8.630;2022-11-20T21:14:13;100534.78;;;-0.37
27715;BMP280;16051;53.024;8.630;2022-11-20T21:18:17;100537.47;;;-0.34
27715;BMP280;16051;53.024;8.630;2022-11-20T21:22:19;100540.97;;;-0.33
27715;BMP280;16051;53.024;8.630;2022-11-20T21:26:23;100529.25;;;-0.27
27715;BMP280;16051;53.024;8.630;2022-11-20T21:30:25;100529.34;;;-0.37
27715;BMP280;16051;53.024;8.630;2022-11-20T21:34:28;100530.91;;;-0.36
27715;BMP280;16051;53.024;8.630;2022-11-20T21:38:30;100533.97;;;-0.34
27715;BMP280;16051;53.024;8.630;2022-11-20T21:42:33;100531.25;;;-0.34
27715;BMP280;16051;53.024;8.630;2022-11-20T21:46:39;100529.75;;;-0.39
27715;BMP280;16051;53.024;8.630;2022-11-20T21:50:41;100535.19;;;-0.39
27715;BMP280;16051;53.024;8.630;2022-11-20T21:54:43;100523.50;;;-0.36
27715;BMP280;16051;53.024;8.630;2022-11-20T21:58:47;100522.78;;;-0.36
27715;BMP280;16051;53.024;8.630;2022-11-20T22:02:50;100523.44;;;-0.29
27715;BMP280;16051;53.024;8.630;2022-11-20T22:06:52;100509.56;;;-0.34
27715;BMP280;16051;53.024;8.630;2022-11-20T22:10:55;100516.94;;;-0.38
27715;BMP280;16051;53.024;8.630;2022-11-20T22:20:45;100504.47;;;-0.32
27715;BMP280;16051;53.024;8.630;2022-11-20T22:24:53;100499.50;;;-0.37
27715;BMP280;16051;53.024;8.630;2022-11-20T22:28:57;100506.84;;;-0.34
27715;BMP280;16051;53.024;8.630;2022-11-20T22:32:59;100500.59;;;-0.31
27715;BMP280;16051;53.024;8.630;2022-11-20T22:37:03;100485.94;;;-0.37
27715;BMP280;16051;53.024;8.630;2022-11-20T22:41:07;100491.75;;;-0.39
27715;BMP280;16051;53.024;8.630;2022-11-20T22:45:10;100491.31;;;-0.34
27715;BMP280;16051;53.024;8.630;2022-11-20T22:49:13;100497.13;;;-0.32
27715;BMP280;16051;53.024;8.630;2022-11-20T22:53:37;100502.25;;;-0.41
27715;BMP280;16051;53.024;8.630;2022-11-20T22:58:07;100502.25;;;-0.41
27715;BMP280;16051;53.024;8.630;2022-11-20T23:02:09;100492.94;;;-0.40
27715;BMP280;16051;53.024;8.630;2022-11-20T23:06:12;100492.19;;;-0.44
27715;BMP280;16051;53.024;8.630;2022-11-20T23:10:39;100492.19;;;-0.44
27715;BMP280;16051;53.024;8.630;2022-11-20T23:14:42;100487.19;;;-0.49
27715;BMP280;16051;53.024;8.630;2022-11-20T23:18:44;100493.81;;;-0.54
27715;BMP280;16051;53.024;8.630;2022-11-20T23:22:56;100488.84;;;-0.59
27715;BMP280;16051;53.024;8.630;2022-11-20T23:26:59;100488.88;;;-0.62
27715;BMP280;16051;53.024;8.630;2022-11-20T23:31:02;100495.50;;;-0.67
27715;BMP280;16051;53.024;8.630;2022-11-20T23:35:05;100484.69;;;-0.74
27715;BMP280;16051;53.024;8.630;2022-11-20T23:39:07;100492.47;;;-0.79
27715;BMP280;16051;53.024;8.630;2022-11-20T23:43:11;100491.00;;;-0.87
27715;BMP280;16051;53.024;8.630;2022-11-20T23:47:17;100480.53;;;-0.89